Time;durP1;ratioP1;P1;durP2;ratioP2;P2;SDS_P1;SDS_P2;PMS_P1;PMS_P2;Temp;Humidity;BMP_temperature;BMP_pressure;BME280_temperature;BME280_humidity;BME280_pressure;Samples;Min_cycle;Max_cycle;Signal;HPM_P1;HPM_P2
2023/01/31 00:01:28;;;;;;;10.02;1.35;;;;;;;2.71;100.00;100535.41;5005623;28;20499;-75
2023/01/31 00:03:59;;;;;;;10.07;1.88;;;;;;;2.63;100.00;100520.44;5003807;28;20538;-76
2023/01/31 00:06:28;;;;;;;4.45;0.93;;;;;;;2.68;100.00;100535.31;5002356;28;20038;-75
2023/01/31 00:08:54;;;;;;;7.25;1.10;;;;;;;2.66;100.00;100557.84;5002262;28;20037;-76
2023/01/31 00:11:21;;;;;;;14.07;1.15;;;;;;;2.64;100.00;100542.16;5006943;28;20041;-76
2023/01/31 00:13:46;;;;;;;8.68;1.02;;;;;;;2.65;100.00;100541.34;5001429;28;20050;-76
2023/01/31 00:16:13;;;;;;;16.08;1.75;;;;;;;2.64;100.00;100545.63;5003294;28;20042;-76
2023/01/31 00:18:39;;;;;;;12.35;1.63;;;;;;;2.60;100.00;100540.34;5003843;28;20386;-76
2023/01/31 00:21:14;;;;;;;14.95;2.38;;;;;;;2.61;100.00;100548.16;5004388;28;20037;-76
2023/01/31 00:23:42;;;;;;;16.27;1.55;;;;;;;2.70;100.00;100533.59;5001592;28;20042;-76
2023/01/31 00:26:16;;;;;;;7.55;1.20;;;;;;;2.73;100.00;100555.44;5002262;28;20044;-76
2023/01/31 00:28:43;;;;;;;15.60;1.80;;;;;;;2.75;100.00;100558.06;5006310;28;20523;-76
2023/01/31 00:31:10;;;;;;;13.90;1.48;;;;;;;2.76;100.00;100533.78;5010406;28;20061;-76
2023/01/31 00:33:37;;;;;;;11.60;1.80;;;;;;;2.82;100.00;100536.53;5004116;28;20073;-76
2023/01/31 00:36:05;;;;;;;8.95;1.05;;;;;;;2.84;100.00;100540.94;5015010;28;20417;-76
2023/01/31 00:38:31;;;;;;;12.77;1.42;;;;;;;2.95;100.00;100559.47;5005743;28;20092;-76
2023/01/31 00:40:57;;;;;;;9.57;1.65;;;;;;;2.99;100.00;100539.59;5007723;28;20481;-76
2023/01/31 00:43:22;;;;;;;13.90;1.30;;;;;;;3.00;100.00;100546.56;5002421;28;20036;-76
2023/01/31 00:45:47;;;;;;;13.80;1.80;;;;;;;3.06;100.00;100551.91;5000260;28;20046;-76
2023/01/31 00:48:14;;;;;;;16.55;2.17;;;;;;;3.16;100.00;100553.91;5005018;28;20503;-76
2023/01/31 00:50:39;;;;;;;7.13;1.10;;;;;;;3.18;100.00;100557.44;4998640;28;20038;-76
2023/01/31 00:53:05;;;;;;;18.80;1.85;;;;;;;3.22;100.00;100541.03;5003998;28;20129;-76
2023/01/31 00:55:30;;;;;;;8.85;1.30;;;;;;;3.21;100.00;100554.00;5002251;28;20037;-76
2023/01/31 00:57:55;;;;;;;14.73;1.38;;;;;;;3.25;100.00;100553.25;4999572;28;20049;-76
2023/01/31 01:00:21;;;;;;;9.45;1.92;;;;;;;3.21;100.00;100556.63;5005587;28;20177;-76
2023/01/31 01:02:46;;;;;;;11.27;1.58;;;;;;;3.27;100.00;100564.59;5003606;28;20109;-76
2023/01/31 01:05:12;;;;;;;19.02;2.03;;;;;;;3.35;100.00;100583.91;4999962;28;20046;-76
2023/01/31 01:07:37;;;;;;;18.50;2.00;;;;;;;3.32;100.00;100581.22;5001938;28;20049;-76
2023/01/31 01:10:04;;;;;;;12.32;1.75;;;;;;;3.30;100.00;100582.91;4999904;28;20078;-76
2023/01/31 01:12:29;;;;;;;15.80;3.35;;;;;;;3.26;100.00;100570.66;5001626;28;20112;-76
2023/01/31 01:14:55;;;;;;;12.27;1.67;;;;;;;3.27;100.00;100580.22;5003983;28;20069;-76
2023/01/31 01:17:20;;;;;;;11.88;2.33;;;;;;;3.24;100.00;100590.59;5011036;28;20029;-76
2023/01/31 01:19:47;;;;;;;16.45;3.15;;;;;;;3.21;100.00;100587.91;5001523;28;20045;-76
2023/01/31 01:22:15;;;;;;;7.97;1.10;;;;;;;3.25;100.00;100595.00;5004504;28;20034;-76
2023/01/31 01:24:45;;;;;;;9.98;1.70;;;;;;;3.23;100.00;100591.47;5005993;28;20117;-76
2023/01/31 01:27:11;;;;;;;11.25;1.60;;;;;;;3.18;100.00;100593.06;5002334;28;20042;-76
2023/01/31 01:29:37;;;;;;;7.80;1.20;;;;;;;3.08;100.00;100587.59;5002938;28;20133;-76
2023/01/31 01:32:03;;;;;;;4.40;0.40;;;;;;;3.05;100.00;100597.09;4997724;28;20606;-76
2023/01/31 01:34:30;;;;;;;12.00;1.75;;;;;;;3.04;100.00;100627.50;5027221;23;20074;-80
2023/01/31 01:36:55;;;;;;;5.70;0.90;;;;;;;2.96;100.00;100602.97;4989427;28;20114;-79
2023/01/31 01:39:20;;;;;;;5.88;1.45;;;;;;;2.93;100.00;100615.00;4991173;28;20034;-80
2023/01/31 01:41:46;;;;;;;6.25;0.73;;;;;;;2.94;100.00;100625.50;4995092;28;20035;-79
2023/01/31 01:44:48;;;;;;;5.22;1.00;;;;;;;2.94;100.00;100606.38;4992806;28;20058;-79
2023/01/31 01:47:35;;;;;;;7.22;0.90;;;;;;;2.84;100.00;100613.94;4993981;28;20121;-79
2023/01/31 01:50:08;;;;;;;10.35;1.27;;;;;;;2.71;100.00;100610.97;4990058;28;20066;-80
2023/01/31 01:52:41;;;;;;;6.15;0.70;;;;;;;2.59;100.00;100622.84;4994536;28;20034;-80
2023/01/31 01:55:18;;;;;;;9.27;1.08;;;;;;;2.60;100.00;100635.00;4994316;28;20034;-80
2023/01/31 01:57:49;;;;;;;6.55;0.52;;;;;;;2.60;100.00;100642.81;4972521;28;20035;-80
2023/01/31 02:00:18;;;;;;;4.95;0.70;;;;;;;2.67;100.00;100641.25;4984610;28;20085;-79
2023/01/31 02:02:46;;;;;;;7.95;0.80;;;;;;;2.90;100.00;100641.00;4996131;28;20039;-79
2023/01/31 02:05:16;;;;;;;3.05;0.70;;;;;;;2.93;100.00;100646.31;4995359;28;20050;-79
2023/01/31 02:07:42;;;;;;;9.35;1.05;;;;;;;2.90;100.00;100651.44;4995512;28;20034;-79
2023/01/31 02:10:16;;;;;;;6.47;1.02;;;;;;;2.88;100.00;100647.91;4994413;28;20038;-79
2023/01/31 02:12:41;;;;;;;9.63;0.98;;;;;;;2.83;100.00;100638.25;4991069;28;20034;-79
2023/01/31 02:15:07;;;;;;;6.25;1.00;;;;;;;2.75;100.00;100644.06;4995531;28;20038;-79
2023/01/31 02:17:34;;;;;;;2.45;0.65;;;;;;;2.59;100.00;100642.78;4992703;28;20034;-79
2023/01/31 02:20:07;;;;;;;9.25;1.08;;;;;;;2.49;100.00;100636.44;4988868;28;20034;-79
2023/01/31 02:22:41;;;;;;;11.85;2.85;;;;;;;2.45;100.00;100655.41;4996466;28;20030;-79
2023/01/31 02:25:21;;;;;;;8.38;1.17;;;;;;;2.39;100.00;100650.03;4996409;28;20042;-79
2023/01/31 02:28:08;;;;;;;13.35;1.20;;;;;;;2.38;100.00;100663.88;4974782;28;20031;-79
2023/01/31 02:30:45;;;;;;;11.82;1.40;;;;;;;2.35;100.00;100653.38;4973000;28;20086;-79
2023/01/31 02:33:21;;;;;;;9.70;2.05;;;;;;;2.33;100.00;100679.41;4991533;28;20049;-78
2023/01/31 02:36:02;;;;;;;12.45;1.50;;;;;;;2.35;100.00;100675.09;4994652;28;20074;-79
2023/01/31 02:39:06;;;;;;;13.68;1.88;;;;;;;2.47;100.00;100682.41;4975265;28;20054;-79
2023/01/31 02:41:41;;;;;;;9.60;1.50;;;;;;;2.61;100.00;100668.03;4948611;28;20047;-79
2023/01/31 02:45:01;;;;;;;6.40;1.48;;;;;;;2.65;100.00;100687.25;5000206;28;20039;-79
2023/01/31 02:47:37;;;;;;;23.10;1.80;;;;;;;2.64;100.00;100688.97;4989227;28;20050;-79
2023/01/31 02:50:19;;;;;;;9.93;1.80;;;;;;;2.68;100.00;100709.91;4985185;28;20042;-78
2023/01/31 02:52:48;;;;;;;15.68;2.40;;;;;;;2.59;100.00;100707.91;4984342;28;20037;-78
2023/01/31 02:58:29;;;;;;;12.55;1.35;;;;;;;2.72;100.00;100717.84;4969954;28;20069;-78
2023/01/31 03:00:57;;;;;;;14.90;1.85;;;;;;;2.84;100.00;100727.75;4981056;28;20034;-78
2023/01/31 03:03:30;;;;;;;13.43;2.10;;;;;;;2.97;100.00;100748.13;4985916;28;20166;-77
2023/01/31 03:06:33;;;;;;;8.52;1.33;;;;;;;3.05;100.00;100738.78;4984637;28;20060;-76
2023/01/31 03:09:08;;;;;;;7.75;1.20;;;;;;;3.04;100.00;100739.63;4983175;28;20038;-77
2023/01/31 03:12:05;;;;;;;13.48;1.50;;;;;;;3.17;100.00;100768.63;4983747;28;20066;-77
2023/01/31 03:14:44;;;;;;;10.15;1.10;;;;;;;3.12;100.00;100746.75;4951820;28;20111;-77
2023/01/31 03:17:32;;;;;;;11.88;2.25;;;;;;;3.02;100.00;100758.69;4983637;28;20152;-77
2023/01/31 03:20:31;;;;;;;8.13;1.73;;;;;;;3.07;100.00;100750.13;4986789;28;20045;-77
2023/01/31 03:23:00;;;;;;;6.22;0.98;;;;;;;3.05;100.00;100792.66;4968845;28;20038;-77
2023/01/31 03:25:29;;;;;;;16.05;2.67;;;;;;;3.17;100.00;100752.97;4985562;28;20030;-76
2023/01/31 03:28:00;;;;;;;14.05;1.77;;;;;;;3.10;100.00;100761.50;4979306;28;20034;-76
2023/01/31 03:30:51;;;;;;;13.55;2.15;;;;;;;3.03;100.00;100779.56;4984313;28;20386;-77
2023/01/31 03:33:25;;;;;;;9.90;1.25;;;;;;;3.07;100.00;100762.31;4975367;28;20046;-77
2023/01/31 03:36:23;;;;;;;13.45;1.27;;;;;;;3.08;100.00;100754.50;4967084;28;20404;-77
2023/01/31 03:39:04;;;;;;;18.27;1.48;;;;;;;3.12;100.00;100759.78;4971411;28;20050;-76
2023/01/31 03:42:01;;;;;;;8.60;1.40;;;;;;;3.02;100.00;100754.34;4968505;28;20035;-77
2023/01/31 03:44:55;;;;;;;9.30;0.98;;;;;;;3.08;100.00;100777.09;4965791;28;20047;-77
2023/01/31 03:47:23;;;;;;;9.80;1.33;;;;;;;3.05;100.00;100780.50;4981557;28;20042;-77
2023/01/31 03:49:51;;;;;;;8.77;1.15;;;;;;;3.08;100.00;100780.56;4981723;28;20039;-76
2023/01/31 03:52:37;;;;;;;17.58;3.08;;;;;;;3.15;100.00;100780.78;4983458;28;20038;-76
2023/01/31 03:55:14;;;;;;;8.70;1.10;;;;;;;3.18;100.00;100786.06;4963661;28;20035;-77
2023/01/31 03:57:41;;;;;;;9.73;2.25;;;;;;;3.29;100.00;100789.84;4981403;28;20042;-76
2023/01/31 04:00:13;;;;;;;10.43;1.48;;;;;;;3.29;100.00;100797.66;4982774;28;20098;-76
2023/01/31 04:02:50;;;;;;;6.47;1.20;;;;;;;3.31;100.00;100805.56;4976814;28;20023;-76
2023/01/31 04:05:20;;;;;;;9.18;1.00;;;;;;;3.39;100.00;100801.44;4982767;28;20400;-75
2023/01/31 04:07:48;;;;;;;10.65;1.27;;;;;;;3.34;100.00;100806.50;4982235;28;20066;-76
2023/01/31 04:10:20;;;;;;;13.88;1.85;;;;;;;3.42;100.00;100793.66;4981035;28;20026;-76
2023/01/31 04:12:46;;;;;;;14.07;1.40;;;;;;;3.41;100.00;100790.19;4981667;28;20695;-76
2023/01/31 04:15:12;;;;;;;4.70;1.02;;;;;;;3.46;100.00;100799.03;4983806;28;20038;-76
2023/01/31 04:17:37;;;;;;;12.15;1.27;;;;;;;3.48;100.00;100792.13;4976282;28;20101;-76
2023/01/31 04:20:04;;;;;;;9.70;1.10;;;;;;;3.40;100.00;100813.63;4982431;28;20148;-76
2023/01/31 04:22:30;;;;;;;9.10;0.93;;;;;;;3.41;100.00;100816.28;4980963;28;20093;-76
2023/01/31 04:24:55;;;;;;;7.07;1.75;;;;;;;3.36;100.00;100801.34;4984826;28;20497;-76
2023/01/31 04:27:20;;;;;;;9.23;1.60;;;;;;;3.39;100.00;100817.06;4977539;28;20551;-75
2023/01/31 04:29:46;;;;;;;7.00;1.05;;;;;;;3.35;100.00;100815.22;4981013;28;20509;-76
2023/01/31 04:32:11;;;;;;;9.13;0.95;;;;;;;3.25;100.00;100824.53;4982929;28;20045;-76
2023/01/31 04:34:36;;;;;;;9.85;1.77;;;;;;;3.13;100.00;100839.81;4979329;28;20043;-76
2023/01/31 04:37:02;;;;;;;17.60;1.60;;;;;;;3.12;100.00;100845.84;4984344;28;20122;-76
2023/01/31 04:39:27;;;;;;;5.43;0.95;;;;;;;3.03;100.00;100844.75;4981172;28;20031;-75
2023/01/31 04:41:52;;;;;;;10.55;1.20;;;;;;;3.00;100.00;100829.03;4983984;28;20503;-76
2023/01/31 04:44:18;;;;;;;9.57;1.52;;;;;;;3.02;100.00;100837.78;4981379;28;20039;-76
2023/01/31 04:46:45;;;;;;;6.75;1.40;;;;;;;2.99;100.00;100837.69;4984135;28;20057;-76
2023/01/31 04:49:11;;;;;;;12.20;2.22;;;;;;;2.94;100.00;100834.06;4981898;28;20030;-76
2023/01/31 04:51:37;;;;;;;14.90;2.20;;;;;;;2.95;100.00;100840.16;4979860;28;20137;-75
2023/01/31 04:54:02;;;;;;;16.75;1.77;;;;;;;3.01;100.00;100843.84;4980668;28;20573;-76
2023/01/31 04:56:28;;;;;;;12.98;1.88;;;;;;;3.08;100.00;100850.09;4981411;28;20401;-76
2023/01/31 04:58:53;;;;;;;9.15;1.65;;;;;;;3.14;100.00;100852.88;4980916;28;20639;-76
2023/01/31 05:01:18;;;;;;;11.25;2.78;;;;;;;3.23;100.00;100847.06;4978829;28;20560;-76
2023/01/31 05:03:44;;;;;;;12.75;1.10;;;;;;;3.25;100.00;100840.19;4980103;28;20046;-75
2023/01/31 05:06:09;;;;;;;16.83;2.40;;;;;;;3.23;100.00;100841.84;4981468;28;20042;-75
2023/01/31 05:08:34;;;;;;;9.77;1.42;;;;;;;3.30;100.00;100838.56;4982647;28;20042;-75
2023/01/31 05:11:01;;;;;;;10.75;1.50;;;;;;;3.37;100.00;100845.72;4981116;28;20045;-75
2023/01/31 05:13:29;;;;;;;7.65;1.25;;;;;;;3.35;100.00;100826.53;4982387;28;20050;-75
2023/01/31 05:15:56;;;;;;;7.63;1.30;;;;;;;3.38;100.00;100830.94;4976836;28;20045;-76
2023/01/31 05:18:23;;;;;;;12.32;1.92;;;;;;;3.45;100.00;100846.81;4986037;28;20121;-76
2023/01/31 05:20:49;;;;;;;16.30;1.73;;;;;;;3.46;100.00;100842.50;4972309;28;20039;-76
2023/01/31 05:23:16;;;;;;;12.55;1.30;;;;;;;3.43;100.00;100850.22;4977939;28;20023;-76
2023/01/31 05:25:42;;;;;;;11.55;2.08;;;;;;;3.47;100.00;100829.47;4981388;28;20053;-76
2023/01/31 05:28:08;;;;;;;12.63;1.50;;;;;;;3.43;100.00;100840.69;4980448;28;20035;-76
2023/01/31 05:30:33;;;;;;;10.60;1.42;;;;;;;3.55;100.00;100845.34;4983331;28;20034;-76
2023/01/31 05:32:58;;;;;;;9.63;1.17;;;;;;;3.49;100.00;100843.47;4979948;28;20030;-76
2023/01/31 05:35:24;;;;;;;11.82;1.70;;;;;;;3.55;100.00;100849.69;4976035;28;20481;-76
2023/01/31 05:37:52;;;;;;;10.73;1.52;;;;;;;3.63;100.00;100837.72;4975273;28;20055;-76
2023/01/31 05:40:17;;;;;;;15.85;1.40;;;;;;;3.58;100.00;100850.66;4974345;28;20039;-75
2023/01/31 05:42:43;;;;;;;9.98;1.25;;;;;;;3.60;100.00;100864.63;4978422;28;20481;-75
2023/01/31 05:45:10;;;;;;;9.00;1.25;;;;;;;3.69;100.00;100864.00;4978805;28;20101;-76
2023/01/31 05:47:35;;;;;;;11.50;1.35;;;;;;;3.68;100.00;100852.66;4984233;28;20034;-76
2023/01/31 05:50:01;;;;;;;16.02;1.23;;;;;;;3.70;100.00;100865.78;4975736;28;20046;-76
2023/01/31 05:52:26;;;;;;;8.95;1.92;;;;;;;3.74;100.00;100871.09;4982210;28;20042;-75
2023/01/31 05:54:52;;;;;;;10.35;1.23;;;;;;;3.79;100.00;100862.53;4981163;28;20052;-76
2023/01/31 05:57:17;;;;;;;15.93;1.80;;;;;;;3.79;100.00;100859.91;4980854;28;20034;-75
2023/01/31 05:59:43;;;;;;;14.00;1.58;;;;;;;3.74;100.00;100878.06;4974371;28;20548;-75
2023/01/31 06:02:10;;;;;;;12.43;2.08;;;;;;;3.74;100.00;100872.81;4981323;28;20437;-75
2023/01/31 06:04:36;;;;;;;11.38;0.90;;;;;;;3.73;100.00;100865.84;4977050;28;20046;-75
2023/01/31 06:07:02;;;;;;;10.60;1.23;;;;;;;3.78;100.00;100874.69;4980230;28;20035;-76
2023/01/31 06:09:28;;;;;;;11.07;1.27;;;;;;;3.73;100.00;100874.56;4981064;28;20472;-75
2023/01/31 06:11:53;;;;;;;7.78;1.20;;;;;;;3.80;100.00;100878.25;4980835;28;20074;-75
2023/01/31 06:14:18;;;;;;;12.80;1.45;;;;;;;3.77;100.00;100877.25;4980966;28;20046;-75
2023/01/31 06:16:44;;;;;;;10.20;1.48;;;;;;;3.75;100.00;100890.28;4980814;28;20034;-75
2023/01/31 06:19:09;;;;;;;6.97;1.50;;;;;;;3.69;100.00;100890.09;4982048;28;20042;-74
2023/01/31 06:21:34;;;;;;;8.05;0.80;;;;;;;3.60;100.00;100889.84;4981076;28;20042;-75
2023/01/31 06:24:00;;;;;;;6.50;1.08;;;;;;;3.48;100.00;100896.50;4977484;28;20110;-75
2023/01/31 06:26:25;;;;;;;14.27;1.63;;;;;;;3.36;100.00;100895.28;4981620;28;20097;-75
2023/01/31 06:28:51;;;;;;;9.98;1.27;;;;;;;3.23;100.00;100904.47;4978101;28;20196;-75
2023/01/31 06:31:17;;;;;;;9.52;1.10;;;;;;;3.20;100.00;100914.81;4979394;28;20051;-75
2023/01/31 06:33:42;;;;;;;11.23;1.95;;;;;;;3.17;100.00;100907.78;4973596;28;20040;-75
2023/01/31 06:36:07;;;;;;;8.60;1.35;;;;;;;3.19;100.00;100902.59;4977296;28;20508;-75
2023/01/31 06:38:33;;;;;;;5.07;1.40;;;;;;;3.19;100.00;100898.25;4981576;28;20035;-75
2023/01/31 06:40:58;;;;;;;8.02;1.33;;;;;;;3.20;100.00;100909.59;4979414;28;20041;-76
2023/01/31 06:43:23;;;;;;;10.65;1.25;;;;;;;3.24;100.00;100887.94;4979365;28;20026;-75
2023/01/31 06:45:49;;;;;;;8.07;0.98;;;;;;;3.21;100.00;100883.53;4978867;28;20042;-75
2023/01/31 06:48:15;;;;;;;6.30;0.80;;;;;;;3.21;100.00;100895.69;4977538;28;20541;-75
2023/01/31 06:50:41;;;;;;;11.63;1.60;;;;;;;3.22;100.00;100905.28;4980248;28;20069;-76
2023/01/31 06:53:06;;;;;;;3.30;1.05;;;;;;;3.24;100.00;100907.09;4982847;28;20062;-75
2023/01/31 06:55:31;;;;;;;10.52;1.30;;;;;;;3.30;100.00;100906.38;4985799;28;20072;-76
2023/01/31 06:57:57;;;;;;;6.57;1.27;;;;;;;3.30;100.00;100909.00;4982670;28;20037;-76
2023/01/31 07:00:25;;;;;;;4.75;0.70;;;;;;;3.30;100.00;100906.38;4986408;28;20038;-75
2023/01/31 07:02:52;;;;;;;4.72;1.02;;;;;;;3.32;100.00;100912.53;4979619;28;20027;-75
2023/01/31 07:05:18;;;;;;;12.43;1.83;;;;;;;3.34;100.00;100915.19;4986354;28;20034;-75
2023/01/31 07:07:45;;;;;;;8.27;1.15;;;;;;;3.33;100.00;100911.72;4984992;28;20057;-75
2023/01/31 07:10:11;;;;;;;8.25;1.20;;;;;;;3.37;100.00;100913.56;4984261;28;20118;-76
2023/01/31 07:12:36;;;;;;;7.45;1.77;;;;;;;3.41;100.00;100910.22;4985092;28;20045;-76
2023/01/31 07:15:02;;;;;;;6.93;1.05;;;;;;;3.43;100.00;100913.75;4983877;28;20042;-75
2023/01/31 07:17:27;;;;;;;19.63;1.25;;;;;;;3.45;100.00;100917.28;4984923;28;20066;-76
2023/01/31 07:19:53;;;;;;;4.65;1.17;;;;;;;3.45;100.00;100930.31;4982335;28;20117;-76
2023/01/31 07:22:18;;;;;;;6.10;1.13;;;;;;;3.46;100.00;100923.41;4983672;28;20042;-75
2023/01/31 07:24:44;;;;;;;6.28;1.00;;;;;;;3.39;100.00;100927.53;4983004;28;20041;-76
2023/01/31 07:27:12;;;;;;;4.85;1.10;;;;;;;3.38;100.00;100923.16;4983431;28;20043;-75
2023/01/31 07:29:37;;;;;;;8.77;1.50;;;;;;;3.41;100.00;100938.03;4984468;28;20073;-75
2023/01/31 07:32:03;;;;;;;7.90;1.10;;;;;;;3.38;100.00;100931.00;4980310;28;20073;-75
2023/01/31 07:34:28;;;;;;;3.70;0.90;;;;;;;3.39;100.00;100924.94;5004992;23;20127;-77
2023/01/31 07:36:53;;;;;;;8.77;1.83;;;;;;;3.48;100.00;100916.47;5002597;28;20038;-77
2023/01/31 07:39:19;;;;;;;6.75;1.35;;;;;;;3.51;100.00;100904.41;5019491;28;20087;-77
2023/01/31 07:41:44;;;;;;;5.50;1.60;;;;;;;3.52;100.00;100907.91;5005586;28;20133;-77
2023/01/31 07:44:10;;;;;;;8.57;1.38;;;;;;;3.54;100.00;100910.53;5018038;28;20132;-77
2023/01/31 07:46:35;;;;;;;7.13;1.02;;;;;;;3.51;100.00;100908.72;5004159;28;20041;-77
2023/01/31 07:49:01;;;;;;;6.63;0.82;;;;;;;3.53;100.00;100895.72;5006792;28;20107;-77
2023/01/31 07:51:26;;;;;;;11.27;1.67;;;;;;;3.62;100.00;100903.84;5006344;28;20030;-77
2023/01/31 07:53:52;;;;;;;9.88;1.67;;;;;;;3.58;100.00;100904.56;5005903;28;20084;-77
2023/01/31 07:56:19;;;;;;;6.03;1.20;;;;;;;3.51;100.00;100917.47;5002206;28;20053;-77
2023/01/31 07:58:46;;;;;;;5.65;1.13;;;;;;;3.60;100.00;100895.06;5005188;28;20044;-77
2023/01/31 08:03:58;;;;;;;4.18;1.40;;;;;;;3.64;100.00;100908.25;5008487;28;20456;-78
2023/01/31 08:06:24;;;;;;;8.00;2.05;;;;;;;3.64;100.00;100891.69;5004162;28;20036;-77
2023/01/31 08:08:49;;;;;;;3.45;1.02;;;;;;;3.58;100.00;100897.63;5001683;28;20038;-77
2023/01/31 08:11:14;;;;;;;11.77;1.05;;;;;;;3.56;100.00;100903.66;5009192;28;20393;-77
2023/01/31 08:13:40;;;;;;;4.32;0.77;;;;;;;3.52;100.00;100897.47;5004577;28;20400;-77
2023/01/31 08:16:08;;;;;;;8.68;1.42;;;;;;;3.50;100.00;100894.81;4999912;28;20504;-77
2023/01/31 08:18:33;;;;;;;2.90;0.88;;;;;;;3.56;100.00;100901.03;5005483;28;20041;-77
2023/01/31 08:20:59;;;;;;;8.93;1.88;;;;;;;3.50;100.00;100889.59;5006841;28;20436;-77
2023/01/31 08:23:26;;;;;;;5.10;0.73;;;;;;;3.53;100.00;100904.44;5003705;28;20044;-77
2023/01/31 08:25:51;;;;;;;10.27;1.20;;;;;;;3.57;100.00;100902.81;5005138;28;20562;-77
2023/01/31 08:28:16;;;;;;;12.63;1.52;;;;;;;3.58;100.00;100900.25;5002567;28;20046;-77
2023/01/31 08:30:43;;;;;;;5.72;0.98;;;;;;;3.66;100.00;100890.00;5002655;28;20030;-77
2023/01/31 08:33:10;;;;;;;5.03;0.82;;;;;;;3.73;100.00;100886.75;5006760;28;20187;-77
2023/01/31 08:35:35;;;;;;;6.80;1.02;;;;;;;3.84;100.00;100885.28;5006662;28;20088;-77
2023/01/31 08:38:01;;;;;;;7.38;1.02;;;;;;;3.98;100.00;100895.22;5000378;28;20030;-77
2023/01/31 08:40:26;;;;;;;5.85;1.33;;;;;;;4.04;100.00;100895.41;5011901;28;20034;-77
2023/01/31 08:42:59;;;;;;;5.30;1.27;;;;;;;4.09;100.00;100893.78;5008482;28;20034;-77
2023/01/31 08:45:27;;;;;;;14.13;1.08;;;;;;;4.07;100.00;100887.63;5005045;28;20025;-77
2023/01/31 08:47:54;;;;;;;10.07;1.27;;;;;;;4.17;100.00;100889.66;5008219;28;20505;-77
2023/01/31 08:50:19;;;;;;;10.18;1.80;;;;;;;4.27;100.00;100893.34;5003832;28;20387;-77
2023/01/31 08:52:45;;;;;;;3.90;0.95;;;;;;;4.24;100.00;100883.69;5012175;28;20021;-77
2023/01/31 08:55:12;;;;;;;8.00;0.95;;;;;;;4.32;100.00;100874.34;5002300;28;20394;-77
2023/01/31 08:57:39;;;;;;;6.78;1.48;;;;;;;4.36;100.00;100881.41;5007706;28;20033;-77
2023/01/31 09:00:06;;;;;;;4.93;0.63;;;;;;;4.47;100.00;100883.41;5002555;28;20493;-77
2023/01/31 09:02:31;;;;;;;5.97;0.95;;;;;;;4.45;100.00;100883.34;5005798;28;20026;-77
2023/01/31 09:04:57;;;;;;;4.90;1.10;;;;;;;4.44;99.68;100883.34;5003343;28;20085;-77
2023/01/31 09:07:22;;;;;;;8.50;0.85;;;;;;;4.48;97.05;100890.38;5008915;28;20029;-77
2023/01/31 09:09:48;;;;;;;8.43;1.55;;;;;;;4.51;97.82;100869.56;5002866;28;20042;-77
2023/01/31 09:12:13;;;;;;;4.05;1.17;;;;;;;4.60;95.83;100869.78;5005838;28;20034;-77
2023/01/31 09:14:39;;;;;;;4.00;0.50;;;;;;;4.64;94.19;100871.63;5005474;28;20065;-77
2023/01/31 09:17:04;;;;;;;6.35;0.70;;;;;;;4.75;94.00;100870.13;5013201;28;20036;-77
2023/01/31 09:19:29;;;;;;;8.20;1.02;;;;;;;4.72;93.13;100858.72;5007274;28;20046;-77
2023/01/31 09:21:54;;;;;;;8.98;0.80;;;;;;;4.77;92.75;100862.34;5006403;28;20045;-77
2023/01/31 09:24:20;;;;;;;7.90;1.23;;;;;;;4.82;93.03;100845.00;5006345;28;20041;-77
2023/01/31 09:26:45;;;;;;;4.78;0.90;;;;;;;4.96;92.52;100854.03;5005291;28;20042;-78
2023/01/31 09:29:10;;;;;;;4.28;1.23;;;;;;;4.99;90.60;100856.72;5005810;28;20045;-77
2023/01/31 09:31:36;;;;;;;4.57;1.08;;;;;;;5.09;91.91;100860.41;5008593;28;20063;-77
2023/01/31 09:34:01;;;;;;;3.78;0.90;;;;;;;5.14;89.76;100865.75;5002292;28;20046;-77
2023/01/31 09:36:27;;;;;;;5.05;0.88;;;;;;;5.13;89.23;100861.34;5003937;28;20091;-77
2023/01/31 09:38:55;;;;;;;11.80;1.63;;;;;;;5.10;89.15;100859.56;5000967;28;20038;-77
2023/01/31 09:41:36;;;;;;;4.85;0.82;;;;;;;5.08;89.86;100848.16;5007230;28;20022;-77
2023/01/31 09:44:09;;;;;;;5.68;0.70;;;;;;;5.16;89.81;100845.72;5002698;28;20038;-77
2023/01/31 09:46:37;;;;;;;5.50;1.02;;;;;;;5.22;90.23;100849.34;5004852;28;20042;-77
2023/01/31 09:49:06;;;;;;;6.82;1.00;;;;;;;5.21;89.27;100849.31;5008098;28;20038;-77
2023/01/31 09:51:38;;;;;;;5.57;1.45;;;;;;;5.16;88.86;100851.84;5005317;28;20068;-77
2023/01/31 09:54:06;;;;;;;4.53;1.10;;;;;;;5.07;90.35;100845.53;5005697;28;20448;-77
2023/01/31 09:56:41;;;;;;;5.95;1.05;;;;;;;5.10;89.09;100841.25;5002733;28;20045;-77
2023/01/31 09:59:27;;;;;;;4.45;1.33;;;;;;;5.11;90.26;100847.34;5001505;28;20093;-77
2023/01/31 10:02:10;;;;;;;4.70;1.00;;;;;;;5.10;90.49;100846.47;5005149;28;20489;-77
2023/01/31 10:04:56;;;;;;;3.70;1.10;;;;;;;5.10;91.24;100845.59;5004055;28;20038;-77
2023/01/31 10:07:32;;;;;;;9.32;2.55;;;;;;;5.02;91.80;100842.81;5011322;28;20042;-77
2023/01/31 10:10:20;;;;;;;8.30;1.13;;;;;;;4.96;91.47;100842.69;5005487;28;20037;-77
2023/01/31 10:12:50;;;;;;;5.65;0.90;;;;;;;4.98;92.74;100836.66;5008172;28;20037;-77
2023/01/31 10:15:39;;;;;;;6.82;0.60;;;;;;;4.94;92.10;100828.69;5005119;28;20042;-77
2023/01/31 10:18:11;;;;;;;8.02;2.58;;;;;;;4.98;92.21;100826.19;5011448;28;20037;-77
2023/01/31 10:20:43;;;;;;;6.63;0.93;;;;;;;5.00;93.16;100823.59;5004524;28;20100;-77
2023/01/31 10:23:37;;;;;;;9.40;1.27;;;;;;;5.04;92.32;100815.84;5005273;28;20092;-77
2023/01/31 10:26:08;;;;;;;6.47;1.27;;;;;;;5.01;93.17;100815.78;5008865;28;20117;-77
2023/01/31 10:28:42;;;;;;;13.07;1.80;;;;;;;5.08;93.25;100815.91;5024875;28;20412;-77
2023/01/31 10:31:24;;;;;;;9.73;0.98;;;;;;;5.04;92.96;100815.84;5003261;28;20057;-77
2023/01/31 10:33:55;;;;;;;5.63;1.15;;;;;;;5.06;91.95;100810.66;5010706;28;20135;-77
2023/01/31 10:36:33;;;;;;;3.42;0.80;;;;;;;5.01;91.68;100820.13;5004510;28;20118;-77
2023/01/31 10:39:09;;;;;;;7.85;1.58;;;;;;;4.96;92.48;100800.84;5004336;28;20523;-77
2023/01/31 10:42:02;;;;;;;3.63;1.15;;;;;;;4.91;93.15;100781.56;5016511;28;20034;-77
2023/01/31 10:44:35;;;;;;;;;;;;;;;4.95;93.28;100785.97;5007919;28;20564;-77
2023/01/31 10:47:01;;;;;;;3.88;1.00;;;;;;;4.99;92.69;100790.44;5008285;28;19912;-77
2023/01/31 10:49:27;;;;;;;7.65;1.52;;;;;;;4.94;91.55;100797.31;5006369;28;20041;-77
2023/01/31 10:52:27;;;;;;;9.75;1.00;;;;;;;4.96;92.32;100780.81;5011909;28;20033;-77
2023/01/31 10:55:24;;;;;;;8.60;0.77;;;;;;;4.95;93.28;100771.19;4994126;28;20162;-77
2023/01/31 10:57:50;;;;;;;6.53;1.30;;;;;;;4.92;93.75;100773.72;5011722;28;20101;-77
2023/01/31 11:00:21;;;;;;;11.95;1.85;;;;;;;4.94;92.28;100765.91;5010854;28;20034;-77
2023/01/31 11:02:46;;;;;;;7.57;1.65;;;;;;;4.90;93.50;100753.63;5008193;28;20041;-77
2023/01/31 11:05:18;;;;;;;7.57;1.63;;;;;;;4.97;92.50;100755.53;5013814;28;20038;-79
2023/01/31 11:07:44;;;;;;;;;;;;;;;5.04;91.19;100755.69;5009548;28;20040;-78
2023/01/31 11:10:24;;;;;;;7.20;1.10;;;;;;;5.20;91.66;100733.31;5014768;28;19918;-77
2023/01/31 11:13:03;;;;;;;8.32;1.23;;;;;;;5.26;90.21;100736.03;5007766;28;20050;-77
2023/01/31 11:15:36;;;;;;;2.35;0.98;;;;;;;5.27;89.00;100727.34;5011640;28;20099;-77
2023/01/31 11:18:02;;;;;;;9.77;1.10;;;;;;;5.33;89.05;100741.41;5009187;28;20129;-78
2023/01/31 11:20:30;;;;;;;6.97;1.13;;;;;;;5.36;88.33;100729.22;5015818;28;20110;-77
2023/01/31 11:22:58;;;;;;;6.45;1.63;;;;;;;5.45;87.53;100731.16;5008738;28;20124;-77
2023/01/31 11:25:27;;;;;;;5.95;1.35;;;;;;;5.49;85.98;100725.97;5010592;28;20093;-77
2023/01/31 11:27:56;;;;;;;5.72;1.33;;;;;;;5.54;86.15;100718.22;5014958;28;20038;-77
2023/01/31 11:30:26;;;;;;;4.60;1.13;;;;;;;5.59;86.12;100705.22;5017120;28;20061;-78
2023/01/31 11:32:52;;;;;;;3.70;1.10;;;;;;;5.63;86.26;100689.59;5007724;28;20492;-77
2023/01/31 11:35:17;;;;;;;8.32;1.77;;;;;;;5.65;85.45;100672.13;5013476;28;20076;-77
2023/01/31 11:37:57;;;;;;;7.47;1.15;;;;;;;5.70;86.41;100683.56;5007896;28;20041;-77
2023/01/31 11:40:37;;;;;;;4.43;1.02;;;;;;;5.68;86.01;100663.44;5009066;28;20072;-78
2023/01/31 11:43:05;;;;;;;6.53;1.00;;;;;;;5.64;85.34;100677.38;5007735;28;20385;-78